Terminal Aerodrome Forecast
Issued by NWS

Home | Current Version | Previous Version | Text Only | Print | Product List | Glossary On
Versions: 1 2 3 4 5 6 7 8 9 10 11 12 13 14 15 16 17 18 19
000
FTUS44 KMAF 042300 RRA
TAFINK
TAF
KINK 042348Z 0500/0524 04018G28KT P6SM -RA OVC010
     FM050300 04014G20KT 2SM -SN BR OVC004
     FM050800 04008KT P6SM BKN012
     FM051600 02008KT P6SM SKC=

USA.gov is the U.S. government's official web portal to all federal, state and local government web resources and services.